createdAt,value
2018-10-06T00:01:21.770Z,19.92
2018-10-06T00:03:51.839Z,19.90
2018-10-06T00:06:21.663Z,19.88
2018-10-06T00:08:51.713Z,19.86
2018-10-06T00:11:21.382Z,19.84
2018-10-06T00:13:51.092Z,19.82
2018-10-06T00:16:21.380Z,19.80
2018-10-06T00:18:51.267Z,19.78
2018-10-06T00:21:20.894Z,19.77
2018-10-06T00:23:50.593Z,19.75
2018-10-06T00:26:20.427Z,19.73
2018-10-06T00:28:50.262Z,19.72
2018-10-06T00:31:20.066Z,19.70
2018-10-06T00:33:50.690Z,19.68
2018-10-06T00:36:21.126Z,19.68
2018-10-06T00:38:51.253Z,19.64
2018-10-06T00:41:21.242Z,19.64
2018-10-06T00:43:51.157Z,19.62
2018-10-06T00:46:20.978Z,19.60
2018-10-06T00:48:50.824Z,19.58
2018-10-06T00:51:21.103Z,19.58
2018-10-06T00:53:50.883Z,19.56
2018-10-06T00:56:20.669Z,19.54
2018-10-06T00:58:50.417Z,19.52
2018-10-06T01:01:20.141Z,19.51
2018-10-06T01:03:50.001Z,19.50
2018-10-06T01:06:19.698Z,19.49
2018-10-06T01:08:49.512Z,19.48
2018-10-06T01:11:19.829Z,19.46
2018-10-06T01:13:49.612Z,19.45
2018-10-06T01:16:19.281Z,19.43
2018-10-06T01:18:49.213Z,19.43
2018-10-06T01:21:18.877Z,19.41
2018-10-06T01:23:48.539Z,19.40
2018-10-06T01:26:18.796Z,19.38
2018-10-06T01:28:48.746Z,19.38
2018-10-06T01:31:18.605Z,19.36
2018-10-06T01:33:48.445Z,19.35
2018-10-06T01:36:18.199Z,19.34
2018-10-06T01:38:47.900Z,19.33
2018-10-06T01:41:18.034Z,19.32
2018-10-06T01:43:47.823Z,19.30
2018-10-06T01:46:17.874Z,19.30
2018-10-06T01:48:47.861Z,19.27
2018-10-06T01:51:17.645Z,19.27
2018-10-06T01:53:47.602Z,19.25
2018-10-06T01:56:17.377Z,19.24
2018-10-06T01:58:47.038Z,19.23
2018-10-06T02:01:16.747Z,19.22
2018-10-06T02:03:46.411Z,19.20
2018-10-06T02:06:16.880Z,19.19
2018-10-06T02:08:47.689Z,19.18
2018-10-06T02:11:17.412Z,19.16
2018-10-06T02:13:47.133Z,19.15
2018-10-06T02:16:17.017Z,19.15
2018-10-06T02:18:46.769Z,19.14
2018-10-06T02:21:27.859Z,19.13
2018-10-06T02:23:57.634Z,19.12
2018-10-06T02:26:27.454Z,19.11
2018-10-06T02:28:57.574Z,19.09
2018-10-06T02:31:27.259Z,19.09
2018-10-06T02:33:56.921Z,19.09
2018-10-06T02:36:26.647Z,19.07
2018-10-06T02:38:56.430Z,19.05
2018-10-06T02:41:26.137Z,19.04
2018-10-06T02:43:56.684Z,19.02
2018-10-06T02:46:26.828Z,19.03
2018-10-06T02:48:56.664Z,19.02
2018-10-06T02:51:27.009Z,19.02
2018-10-06T02:53:56.711Z,19.00
2018-10-06T02:56:26.473Z,18.98
2018-10-06T02:58:56.509Z,18.98
2018-10-06T03:01:26.128Z,18.97
2018-10-06T03:03:56.019Z,18.97
2018-10-06T03:06:26.071Z,18.96
2018-10-06T03:08:55.702Z,18.95
2018-10-06T03:11:25.392Z,18.94
2018-10-06T03:13:55.804Z,18.93
2018-10-06T03:16:26.150Z,18.92
2018-10-06T03:18:55.760Z,18.92
2018-10-06T03:21:25.417Z,18.90
2018-10-06T03:23:55.221Z,18.89
2018-10-06T03:26:25.296Z,18.90
2018-10-06T03:28:54.958Z,18.89
2018-10-06T03:31:25.107Z,18.88
2018-10-06T03:33:55.150Z,18.86
2018-10-06T03:36:25.124Z,18.86
2018-10-06T03:38:54.960Z,18.86
2018-10-06T03:41:24.698Z,18.85
2018-10-06T03:43:54.389Z,18.83
2018-10-06T03:46:24.380Z,18.82
2018-10-06T03:48:54.009Z,18.83
2018-10-06T03:51:23.917Z,18.82
2018-10-06T03:53:53.615Z,18.80
2018-10-06T03:56:23.088Z,18.81
2018-10-06T03:58:53.297Z,18.78
2018-10-06T04:01:22.992Z,18.78
2018-10-06T04:03:52.662Z,18.76
2018-10-06T04:06:22.693Z,18.76
2018-10-06T04:08:52.304Z,18.74
2018-10-06T04:11:21.991Z,18.73
2018-10-06T04:13:51.693Z,18.72
2018-10-06T04:16:21.440Z,18.70
2018-10-06T04:18:51.513Z,18.68
2018-10-06T04:21:21.463Z,18.67
2018-10-06T04:23:51.204Z,18.66
2018-10-06T04:26:20.902Z,18.64
2018-10-06T04:28:50.542Z,18.64
2018-10-06T04:31:20.769Z,18.66
2018-10-06T04:33:51.001Z,18.65
2018-10-06T04:36:20.886Z,18.66
2018-10-06T04:38:50.482Z,18.67
2018-10-06T04:41:20.200Z,18.69
2018-10-06T04:43:49.888Z,18.72
2018-10-06T04:46:20.290Z,18.73
2018-10-06T04:48:49.937Z,18.75
2018-10-06T04:51:19.597Z,18.78
2018-10-06T04:53:49.178Z,18.78
2018-10-06T04:56:18.815Z,18.80
2018-10-06T04:58:48.531Z,18.82
2018-10-06T05:01:18.393Z,18.85
2018-10-06T05:03:48.029Z,18.88
2018-10-06T05:06:18.170Z,18.91
2018-10-06T05:08:47.717Z,18.94
2018-10-06T05:11:17.353Z,18.96
2018-10-06T05:13:47.035Z,18.99
2018-10-06T05:16:16.658Z,19.01
2018-10-06T05:18:46.816Z,19.05
2018-10-06T05:21:16.890Z,19.08
2018-10-06T05:23:46.848Z,19.10
2018-10-06T05:26:16.508Z,19.12
2018-10-06T05:28:46.251Z,19.17
2018-10-06T05:31:15.935Z,19.19
2018-10-06T05:33:45.672Z,19.20
2018-10-06T05:36:15.551Z,19.26
2018-10-06T05:38:45.173Z,19.27
2018-10-06T05:41:15.237Z,19.32
2018-10-06T05:43:44.904Z,19.33
2018-10-06T05:46:14.528Z,19.36
2018-10-06T05:48:44.942Z,19.39
2018-10-06T05:51:15.077Z,19.42
2018-10-06T05:53:44.638Z,19.46
2018-10-06T05:56:14.356Z,19.47
2018-10-06T05:58:44.163Z,19.50
2018-10-06T06:01:14.132Z,19.51
2018-10-06T06:03:43.853Z,19.56
2018-10-06T06:06:13.569Z,19.57
2018-10-06T06:08:43.328Z,19.60
2018-10-06T06:11:13.400Z,19.61
2018-10-06T06:13:43.205Z,19.64
2018-10-06T06:16:12.930Z,19.66
2018-10-06T06:18:43.294Z,19.68
2018-10-06T06:21:13.149Z,19.71
2018-10-06T06:23:42.858Z,19.73
2018-10-06T06:26:12.509Z,19.76
2018-10-06T06:28:43.310Z,19.76
2018-10-06T06:31:12.887Z,19.79
2018-10-06T06:33:43.133Z,19.82
2018-10-06T06:36:12.918Z,19.82
2018-10-06T06:38:45.326Z,19.80
2018-10-06T06:41:15.952Z,19.85
2018-10-06T06:43:45.591Z,19.88
2018-10-06T06:46:15.299Z,19.89
2018-10-06T06:48:46.513Z,19.91
2018-10-06T06:51:16.302Z,19.93
2018-10-06T06:53:46.177Z,19.96
2018-10-06T06:56:15.813Z,19.97
2018-10-06T06:58:46.532Z,19.99
2018-10-06T07:01:17.614Z,19.99
2018-10-06T07:03:47.349Z,20.02
2018-10-06T07:06:18.493Z,20.03
2018-10-06T07:08:49.076Z,20.04
2018-10-06T07:11:18.744Z,20.06
2018-10-06T07:13:49.105Z,20.08
2018-10-06T07:16:20.392Z,20.10
2018-10-06T07:18:52.478Z,20.11
2018-10-06T07:21:22.298Z,20.13
2018-10-06T07:23:52.960Z,20.16
2018-10-06T07:26:23.199Z,20.18
2018-10-06T07:28:53.448Z,20.18
2018-10-06T07:31:28.909Z,20.21
2018-10-06T07:33:59.541Z,20.23
2018-10-06T07:36:29.336Z,20.26
2018-10-06T07:39:10.102Z,20.35
2018-10-06T07:41:43.019Z,20.35
2018-10-06T07:44:17.509Z,20.39
2018-10-06T07:46:50.548Z,20.39
2018-10-06T07:49:21.401Z,20.40
2018-10-06T07:51:55.029Z,20.43
2018-10-06T07:54:25.462Z,20.43
2018-10-06T07:56:55.514Z,20.46
2018-10-06T07:59:25.991Z,20.48
2018-10-06T08:02:01.565Z,20.50
2018-10-06T08:04:37.473Z,20.53
2018-10-06T08:07:10.962Z,20.54
2018-10-06T08:09:47.902Z,20.56
2018-10-06T08:12:19.193Z,20.58
2018-10-06T08:14:49.243Z,20.59
2018-10-06T08:17:19.849Z,20.62
2018-10-06T08:19:50.325Z,20.64
2018-10-06T08:22:19.896Z,20.74
2018-10-06T08:24:49.776Z,20.71
2018-10-06T08:27:21.277Z,20.71
2018-10-06T08:29:51.483Z,20.74
2018-10-06T08:32:22.144Z,20.75
2018-10-06T08:34:52.550Z,20.73
2018-10-06T08:37:22.966Z,20.77
2018-10-06T08:39:53.464Z,20.81
2018-10-06T08:42:23.271Z,20.81
2018-10-06T08:44:55.021Z,20.80
2018-10-06T08:47:26.454Z,20.83
2018-10-06T08:49:58.313Z,20.85
2018-10-06T08:52:27.988Z,20.88
2018-10-06T08:54:59.782Z,20.89
2018-10-06T08:57:38.606Z,20.92
2018-10-06T09:00:08.275Z,20.94
2018-10-06T09:02:38.662Z,21.03
2018-10-06T09:05:08.265Z,21.04
2018-10-06T09:07:38.220Z,21.06
2018-10-06T09:10:12.284Z,21.19
2018-10-06T09:12:42.649Z,21.04
2018-10-06T09:15:15.409Z,21.02
2018-10-06T09:17:45.483Z,21.02
2018-10-06T09:20:15.075Z,21.01
2018-10-06T09:22:45.532Z,21.03
2018-10-06T09:25:19.006Z,21.05
2018-10-06T09:27:48.959Z,21.08
2018-10-06T09:30:18.701Z,21.09
2018-10-06T09:32:48.554Z,21.10
2018-10-06T09:35:19.238Z,21.12
2018-10-06T09:37:49.189Z,21.13
2018-10-06T09:40:19.721Z,21.14
2018-10-06T09:42:51.811Z,21.15
2018-10-06T09:45:22.382Z,21.18
2018-10-06T09:47:52.037Z,21.21
2018-10-06T09:50:21.447Z,21.27
2018-10-06T09:52:51.228Z,21.31
2018-10-06T09:55:21.175Z,21.32
2018-10-06T09:57:52.012Z,21.37
2018-10-06T10:00:27.047Z,21.37
2018-10-06T10:03:03.254Z,21.41
2018-10-06T10:05:38.192Z,21.45
2018-10-06T10:08:08.131Z,21.45
2018-10-06T10:10:38.693Z,21.47
2018-10-06T10:13:08.627Z,21.50
2018-10-06T10:15:39.000Z,21.55
2018-10-06T10:18:09.070Z,21.58
2018-10-06T10:20:38.652Z,21.59
2018-10-06T10:23:08.569Z,21.60
2018-10-06T10:25:40.088Z,21.58
2018-10-06T10:28:09.664Z,21.60
2018-10-06T10:30:39.359Z,21.67
2018-10-06T10:33:10.581Z,21.70
2018-10-06T10:35:40.573Z,21.69
2018-10-06T10:38:10.175Z,21.72
2018-10-06T10:40:40.336Z,21.76
2018-10-06T10:43:09.910Z,21.76
2018-10-06T10:45:39.372Z,21.75
2018-10-06T10:48:09.205Z,21.78
2018-10-06T10:50:39.006Z,21.82
2018-10-06T10:53:09.489Z,21.87
2018-10-06T10:55:40.515Z,21.88
2018-10-06T10:58:10.811Z,21.86
2018-10-06T11:00:42.568Z,21.87
2018-10-06T11:03:12.642Z,21.86
2018-10-06T11:05:42.679Z,21.87
2018-10-06T11:08:12.551Z,21.89
2018-10-06T11:10:43.459Z,21.89
2018-10-06T11:13:13.008Z,21.92
2018-10-06T11:15:42.547Z,21.96
2018-10-06T11:18:12.881Z,21.93
2018-10-06T11:20:42.804Z,21.93
2018-10-06T11:23:14.216Z,21.96
2018-10-06T11:25:44.057Z,21.98
2018-10-06T11:28:14.359Z,22.00
2018-10-06T11:30:44.777Z,22.01
2018-10-06T11:33:15.226Z,22.03
2018-10-06T11:35:46.562Z,22.03
2018-10-06T11:38:17.525Z,22.05
2018-10-06T11:40:47.470Z,22.07
2018-10-06T11:43:17.419Z,22.07
2018-10-06T11:45:47.716Z,22.07
2018-10-06T11:48:17.623Z,22.06
2018-10-06T11:50:48.291Z,22.09
2018-10-06T11:53:18.405Z,22.11
2018-10-06T11:55:48.434Z,22.11
2018-10-06T11:58:18.712Z,22.12
2018-10-06T12:00:48.758Z,22.13
2018-10-06T12:03:21.079Z,22.14
2018-10-06T12:05:50.742Z,22.15
2018-10-06T12:08:21.440Z,22.14
2018-10-06T12:10:51.556Z,22.17
2018-10-06T12:13:21.252Z,22.17
2018-10-06T12:15:50.843Z,22.18
2018-10-06T12:18:20.792Z,22.19
2018-10-06T12:20:57.621Z,22.19
2018-10-06T12:23:27.726Z,22.20
2018-10-06T12:25:58.241Z,22.21
2018-10-06T12:28:28.476Z,22.22
2018-10-06T12:30:58.565Z,22.21
2018-10-06T12:33:28.459Z,22.22
2018-10-06T12:36:00.024Z,22.23
2018-10-06T12:38:29.883Z,22.24
2018-10-06T12:41:00.442Z,22.23
2018-10-06T12:43:30.081Z,22.26
2018-10-06T12:45:59.884Z,22.25
2018-10-06T12:48:30.168Z,22.26
2018-10-06T12:51:00.197Z,22.26
2018-10-06T12:53:32.395Z,22.26
2018-10-06T12:56:03.162Z,22.27
2018-10-06T12:58:34.103Z,22.28
2018-10-06T13:01:04.475Z,22.27
2018-10-06T13:03:35.165Z,22.28
2018-10-06T13:06:15.561Z,22.28
2018-10-06T13:08:45.550Z,22.28
2018-10-06T13:11:17.323Z,22.29
2018-10-06T13:13:47.720Z,22.29
2018-10-06T13:16:22.064Z,22.29
2018-10-06T13:18:51.845Z,22.30
2018-10-06T13:21:21.573Z,22.28
2018-10-06T13:23:51.582Z,22.28
2018-10-06T13:26:21.424Z,22.29
2018-10-06T13:28:51.273Z,22.30
2018-10-06T13:31:20.886Z,22.30
2018-10-06T13:33:50.848Z,22.30
2018-10-06T13:36:20.895Z,22.29
2018-10-06T13:38:51.345Z,22.31
2018-10-06T13:41:21.144Z,22.33
2018-10-06T13:43:50.724Z,22.35
2018-10-06T13:46:21.821Z,22.33
2018-10-06T13:48:52.700Z,22.34
2018-10-06T13:51:22.675Z,22.34
2018-10-06T13:53:52.795Z,22.34
2018-10-06T13:56:24.055Z,22.34
2018-10-06T13:58:53.808Z,22.33
2018-10-06T14:01:23.944Z,22.32
2018-10-06T14:03:53.679Z,22.33
2018-10-06T14:06:23.417Z,22.32
2018-10-06T14:08:54.100Z,22.33
2018-10-06T14:11:24.445Z,22.33
2018-10-06T14:13:55.096Z,22.33
2018-10-06T14:16:25.144Z,22.32
2018-10-06T14:18:55.443Z,22.32
2018-10-06T14:21:25.193Z,22.33
2018-10-06T14:23:55.584Z,22.32
2018-10-06T14:26:25.634Z,22.32
2018-10-06T14:28:57.486Z,22.33
2018-10-06T14:31:29.156Z,22.33
2018-10-06T14:33:59.797Z,22.33
2018-10-06T14:36:29.855Z,22.33
2018-10-06T14:39:00.575Z,22.32
2018-10-06T14:41:31.921Z,22.33
2018-10-06T14:44:02.124Z,22.33
2018-10-06T14:46:32.189Z,22.34
2018-10-06T14:49:02.166Z,22.34
2018-10-06T14:51:32.273Z,22.34
2018-10-06T14:54:02.112Z,22.34
2018-10-06T14:56:31.976Z,22.34
2018-10-06T14:59:02.182Z,22.33
2018-10-06T15:01:35.281Z,22.32
2018-10-06T15:04:05.329Z,22.33
2018-10-06T15:06:35.725Z,22.32
2018-10-06T15:09:08.086Z,22.32
2018-10-06T15:11:40.364Z,22.31
2018-10-06T15:14:11.780Z,22.32
2018-10-06T15:16:41.558Z,22.33
2018-10-06T15:19:11.305Z,22.33
2018-10-06T15:21:41.286Z,22.32
2018-10-06T15:24:12.212Z,22.31
2018-10-06T15:26:42.120Z,22.32
2018-10-06T15:29:13.206Z,22.31
2018-10-06T15:31:43.443Z,22.31
2018-10-06T15:34:14.812Z,22.30
2018-10-06T15:36:44.613Z,22.30
2018-10-06T15:39:14.758Z,22.30
2018-10-06T15:41:44.834Z,22.29
2018-10-06T15:44:14.785Z,22.29
2018-10-06T15:46:44.622Z,22.29
2018-10-06T15:49:14.432Z,22.28
2018-10-06T15:51:44.934Z,22.28
2018-10-06T15:54:26.271Z,22.28
2018-10-06T15:57:13.080Z,22.27
2018-10-06T15:59:43.048Z,22.26
2018-10-06T16:02:13.069Z,22.26
2018-10-06T16:04:44.920Z,22.26
2018-10-06T16:07:14.631Z,22.25
2018-10-06T16:09:44.951Z,22.24
2018-10-06T16:12:14.722Z,22.24
2018-10-06T16:14:45.189Z,22.24
2018-10-06T16:17:16.194Z,22.24
2018-10-06T16:19:46.349Z,22.23
2018-10-06T16:22:17.015Z,22.23
2018-10-06T16:24:48.742Z,22.22
2018-10-06T16:27:18.544Z,22.21
2018-10-06T16:29:48.595Z,22.20
2018-10-06T16:32:18.815Z,22.20
2018-10-06T16:34:49.883Z,22.18
2018-10-06T16:37:19.888Z,22.17
2018-10-06T16:39:50.600Z,22.16
2018-10-06T16:42:20.828Z,22.14
2018-10-06T16:44:50.838Z,22.11
2018-10-06T16:47:21.086Z,22.10
2018-10-06T16:49:51.260Z,22.07
2018-10-06T16:52:22.016Z,22.05
2018-10-06T16:54:51.640Z,22.03
2018-10-06T16:57:21.335Z,22.01
2018-10-06T16:59:51.181Z,21.99
2018-10-06T17:02:20.985Z,21.96
2018-10-06T17:04:51.088Z,21.94
2018-10-06T17:07:21.221Z,21.91
2018-10-06T17:09:50.840Z,21.90
2018-10-06T17:12:21.461Z,21.87
2018-10-06T17:14:51.412Z,21.86
2018-10-06T17:17:24.189Z,21.84
2018-10-06T17:19:53.959Z,21.80
2018-10-06T17:22:24.357Z,21.80
2018-10-06T17:24:54.951Z,21.78
2018-10-06T17:27:24.626Z,21.75
2018-10-06T17:29:54.267Z,21.73
2018-10-06T17:32:24.485Z,21.70
2018-10-06T17:34:54.071Z,21.69
2018-10-06T17:37:23.822Z,21.67
2018-10-06T17:39:53.760Z,21.64
2018-10-06T17:42:23.574Z,21.62
2018-10-06T17:44:53.027Z,21.59
2018-10-06T17:47:22.764Z,21.55
2018-10-06T17:49:52.736Z,21.54
2018-10-06T17:52:23.256Z,21.53
2018-10-06T17:54:53.120Z,21.52
2018-10-06T17:57:22.743Z,21.48
2018-10-06T17:59:53.763Z,21.48
2018-10-06T18:02:24.716Z,21.47
2018-10-06T18:04:54.924Z,21.43
2018-10-06T18:07:25.154Z,21.44
2018-10-06T18:09:54.950Z,21.43
2018-10-06T18:12:24.794Z,21.43
2018-10-06T18:14:54.653Z,21.42
2018-10-06T18:17:24.615Z,21.40
2018-10-06T18:19:54.839Z,21.39
2018-10-06T18:22:24.683Z,21.40
2018-10-06T18:24:54.270Z,21.39
2018-10-06T18:27:24.009Z,21.38
2018-10-06T18:29:53.634Z,21.37
2018-10-06T18:32:23.781Z,21.36
2018-10-06T18:34:53.553Z,21.35
2018-10-06T18:37:23.602Z,21.34
2018-10-06T18:39:53.095Z,21.32
2018-10-06T18:42:24.070Z,21.31
2018-10-06T18:44:54.285Z,21.30
2018-10-06T18:47:23.915Z,21.28
2018-10-06T18:49:54.459Z,21.27
2018-10-06T18:52:25.606Z,21.25
2018-10-06T18:54:56.195Z,21.24
2018-10-06T18:57:26.482Z,21.24
2018-10-06T18:59:56.526Z,21.21
2018-10-06T19:02:27.047Z,21.22
2018-10-06T19:04:57.148Z,21.25
2018-10-06T19:07:27.323Z,21.26
2018-10-06T19:09:57.211Z,21.27
2018-10-06T19:12:28.225Z,21.26
2018-10-06T19:17:30.620Z,21.22
2018-10-06T19:20:01.111Z,21.24
2018-10-06T19:22:30.944Z,21.24
2018-10-06T19:25:00.704Z,21.24
2018-10-06T19:27:31.234Z,21.25
2018-10-06T19:30:00.912Z,21.25
2018-10-06T19:32:30.719Z,21.27
2018-10-06T19:35:00.395Z,21.27
2018-10-06T19:37:30.082Z,21.27
2018-10-06T19:40:00.311Z,21.26
2018-10-06T19:42:30.213Z,21.27
2018-10-06T19:45:16.092Z,21.26
2018-10-06T19:47:52.087Z,21.27
2018-10-06T19:50:22.074Z,21.27
2018-10-06T19:52:52.634Z,21.27
2018-10-06T19:55:23.424Z,21.27
2018-10-06T19:57:53.941Z,21.28
2018-10-06T20:00:24.417Z,21.29
2018-10-06T20:02:55.723Z,21.32
2018-10-06T20:05:25.503Z,21.33
2018-10-06T20:07:55.282Z,21.35
2018-10-06T20:10:26.102Z,21.35
2018-10-06T20:12:56.019Z,21.34
2018-10-06T20:15:25.799Z,21.35
2018-10-06T20:17:55.695Z,21.37
2018-10-06T20:20:25.864Z,21.37
2018-10-06T20:22:56.226Z,21.37
2018-10-06T20:25:26.427Z,21.36
2018-10-06T20:27:57.168Z,21.35
2018-10-06T20:30:27.459Z,21.35
2018-10-06T20:32:58.242Z,21.36
2018-10-06T20:35:31.683Z,21.35
2018-10-06T20:38:02.300Z,21.33
2018-10-06T20:40:32.318Z,21.33
2018-10-06T20:43:02.820Z,21.33
2018-10-06T20:45:32.575Z,21.34
2018-10-06T20:48:02.311Z,21.33
2018-10-06T20:50:32.775Z,21.32
2018-10-06T20:53:02.576Z,21.33
2018-10-06T20:55:33.362Z,21.31
2018-10-06T20:58:03.683Z,21.31
2018-10-06T21:00:33.640Z,21.30
2018-10-06T21:03:04.193Z,21.29
2018-10-06T21:05:34.897Z,21.28
2018-10-06T21:08:04.909Z,21.28
2018-10-06T21:10:35.588Z,21.27
2018-10-06T21:13:05.557Z,21.25
2018-10-06T21:15:35.264Z,21.26
2018-10-06T21:18:04.878Z,21.25
2018-10-06T21:20:35.024Z,21.25
2018-10-06T21:23:05.178Z,21.24
2018-10-06T21:25:35.382Z,21.22
2018-10-06T21:28:06.850Z,21.21
2018-10-06T21:30:37.054Z,21.19
2018-10-06T21:33:07.059Z,21.17
2018-10-06T21:35:36.925Z,21.15
2018-10-06T21:38:07.711Z,21.14
2018-10-06T21:40:38.425Z,21.14
2018-10-06T21:43:08.194Z,21.13
2018-10-06T21:45:38.238Z,21.12
2018-10-06T21:48:08.392Z,21.12
2018-10-06T21:50:38.360Z,21.10
2018-10-06T21:53:08.520Z,21.09
2018-10-06T21:55:39.094Z,21.08
2018-10-06T21:58:08.701Z,21.06
2018-10-06T22:00:38.892Z,21.06
2018-10-06T22:03:08.649Z,21.05
2018-10-06T22:05:39.938Z,21.04
2018-10-06T22:08:09.544Z,21.03
2018-10-06T22:10:40.069Z,21.02
2018-10-06T22:13:10.421Z,21.03
2018-10-06T22:15:40.773Z,21.01
2018-10-06T22:18:10.975Z,20.99
2018-10-06T22:20:41.722Z,20.96
2018-10-06T22:23:13.333Z,20.96
2018-10-06T22:25:43.647Z,20.95
2018-10-06T22:28:13.700Z,20.95
2018-10-06T22:30:43.807Z,20.95
2018-10-06T22:33:14.116Z,20.92
2018-10-06T22:35:43.904Z,20.93
2018-10-06T22:38:13.602Z,20.92
2018-10-06T22:40:43.269Z,20.91
2018-10-06T22:43:13.031Z,20.81
2018-10-06T22:45:42.656Z,20.79
2018-10-06T22:48:13.797Z,20.77
2018-10-06T22:50:44.176Z,20.73
2018-10-06T22:53:14.148Z,20.71
2018-10-06T22:55:45.183Z,20.69
2018-10-06T22:58:15.215Z,20.67
2018-10-06T23:00:44.884Z,20.64
2018-10-06T23:03:15.428Z,20.63
2018-10-06T23:05:45.128Z,20.61
2018-10-06T23:08:14.963Z,20.59
2018-10-06T23:10:44.559Z,20.57
2018-10-06T23:13:14.403Z,20.56
2018-10-06T23:15:44.183Z,20.53
2018-10-06T23:18:14.204Z,20.52
2018-10-06T23:20:43.836Z,20.50
2018-10-06T23:23:14.131Z,20.47
2018-10-06T23:25:44.380Z,20.47
2018-10-06T23:28:14.168Z,20.45
2018-10-06T23:30:43.762Z,20.44
2018-10-06T23:33:13.444Z,20.41
2018-10-06T23:35:43.222Z,20.40
2018-10-06T23:38:13.774Z,20.39
2018-10-06T23:40:43.841Z,20.38
2018-10-06T23:43:14.207Z,20.36
2018-10-06T23:45:44.165Z,20.34
2018-10-06T23:48:13.917Z,20.32
2018-10-06T23:50:43.904Z,20.32
2018-10-06T23:53:13.759Z,20.31
2018-10-06T23:55:43.494Z,20.29
2018-10-06T23:58:13.330Z,20.27
